sensor_id;sensor_type;location;lat;lon;timestamp;P1;durP1;ratioP1;P2;durP2;ratioP2
10872;SDS011;34586;53.616;10.032;2023-04-03T00:00:49;3.90;;;1.80;;
10872;SDS011;34586;53.616;10.032;2023-04-03T00:03:16;5.10;;;1.60;;
10872;SDS011;34586;53.616;10.032;2023-04-03T00:05:42;3.27;;;1.37;;
10872;SDS011;34586;53.616;10.032;2023-04-03T00:08:09;4.67;;;1.73;;
10872;SDS011;34586;53.616;10.032;2023-04-03T00:10:36;5.40;;;1.60;;
10872;SDS011;34586;53.616;10.032;2023-04-03T00:13:02;7.83;;;1.70;;
10872;SDS011;34586;53.616;10.032;2023-04-03T00:15:39;4.40;;;1.40;;
10872;SDS011;34586;53.616;10.032;2023-04-03T00:18:05;7.57;;;1.77;;
10872;SDS011;34586;53.616;10.032;2023-04-03T00:20:31;8.77;;;2.00;;
10872;SDS011;34586;53.616;10.032;2023-04-03T00:22:58;6.13;;;1.40;;
10872;SDS011;34586;53.616;10.032;2023-04-03T00:25:23;5.40;;;1.80;;
10872;SDS011;34586;53.616;10.032;2023-04-03T00:27:49;5.43;;;1.87;;
10872;SDS011;34586;53.616;10.032;2023-04-03T00:30:15;2.23;;;1.43;;
10872;SDS011;34586;53.616;10.032;2023-04-03T00:32:42;4.13;;;1.93;;
10872;SDS011;34586;53.616;10.032;2023-04-03T00:35:08;6.30;;;1.93;;
10872;SDS011;34586;53.616;10.032;2023-04-03T00:37:34;5.23;;;1.70;;
10872;SDS011;34586;53.616;10.032;2023-04-03T00:40:00;4.37;;;1.53;;
10872;SDS011;34586;53.616;10.032;2023-04-03T00:42:27;4.57;;;1.63;;
10872;SDS011;34586;53.616;10.032;2023-04-03T00:47:18;5.50;;;2.10;;
10872;SDS011;34586;53.616;10.032;2023-04-03T00:49:44;7.97;;;1.80;;
10872;SDS011;34586;53.616;10.032;2023-04-03T00:52:13;3.37;;;1.47;;
10872;SDS011;34586;53.616;10.032;2023-04-03T00:54:41;4.57;;;1.57;;
10872;SDS011;34586;53.616;10.032;2023-04-03T00:57:09;5.67;;;1.73;;
10872;SDS011;34586;53.616;10.032;2023-04-03T00:59:38;4.50;;;1.70;;
10872;SDS011;34586;53.616;10.032;2023-04-03T01:02:09;4.33;;;1.70;;
10872;SDS011;34586;53.616;10.032;2023-04-03T01:04:35;5.43;;;1.80;;
10872;SDS011;34586;53.616;10.032;2023-04-03T01:07:05;2.83;;;1.53;;
10872;SDS011;34586;53.616;10.032;2023-04-03T01:09:35;6.27;;;1.77;;
10872;SDS011;34586;53.616;10.032;2023-04-03T01:12:15;4.40;;;1.50;;
10872;SDS011;34586;53.616;10.032;2023-04-03T01:14:51;4.10;;;1.80;;
10872;SDS011;34586;53.616;10.032;2023-04-03T01:17:32;4.07;;;1.73;;
10872;SDS011;34586;53.616;10.032;2023-04-03T01:20:03;3.77;;;1.60;;
10872;SDS011;34586;53.616;10.032;2023-04-03T01:25:39;6.50;;;1.63;;
10872;SDS011;34586;53.616;10.032;2023-04-03T01:28:12;4.03;;;1.90;;
10872;SDS011;34586;53.616;10.032;2023-04-03T01:30:43;6.63;;;1.43;;
10872;SDS011;34586;53.616;10.032;2023-04-03T01:33:15;6.57;;;1.70;;
10872;SDS011;34586;53.616;10.032;2023-04-03T01:35:41;2.93;;;1.40;;
10872;SDS011;34586;53.616;10.032;2023-04-03T01:38:06;6.07;;;1.90;;
10872;SDS011;34586;53.616;10.032;2023-04-03T01:40:32;6.90;;;2.00;;
10872;SDS011;34586;53.616;10.032;2023-04-03T01:42:58;6.07;;;1.50;;
10872;SDS011;34586;53.616;10.032;2023-04-03T01:45:24;5.20;;;1.73;;
10872;SDS011;34586;53.616;10.032;2023-04-03T01:47:50;6.33;;;2.03;;
10872;SDS011;34586;53.616;10.032;2023-04-03T01:50:15;7.50;;;2.07;;
10872;SDS011;34586;53.616;10.032;2023-04-03T01:52:42;7.10;;;1.93;;
10872;SDS011;34586;53.616;10.032;2023-04-03T01:55:08;5.17;;;1.73;;
10872;SDS011;34586;53.616;10.032;2023-04-03T01:57:34;8.77;;;2.00;;
10872;SDS011;34586;53.616;10.032;2023-04-03T02:00:00;6.23;;;1.93;;
10872;SDS011;34586;53.616;10.032;2023-04-03T02:02:25;4.33;;;1.47;;
10872;SDS011;34586;53.616;10.032;2023-04-03T02:04:52;7.27;;;1.90;;
10872;SDS011;34586;53.616;10.032;2023-04-03T02:07:19;5.90;;;2.00;;
10872;SDS011;34586;53.616;10.032;2023-04-03T02:09:45;6.37;;;1.80;;
10872;SDS011;34586;53.616;10.032;2023-04-03T02:12:11;7.83;;;1.90;;
10872;SDS011;34586;53.616;10.032;2023-04-03T02:14:36;7.03;;;2.13;;
10872;SDS011;34586;53.616;10.032;2023-04-03T02:17:02;7.00;;;2.30;;
10872;SDS011;34586;53.616;10.032;2023-04-03T02:19:33;6.73;;;1.93;;
10872;SDS011;34586;53.616;10.032;2023-04-03T02:22:02;7.00;;;1.90;;
10872;SDS011;34586;53.616;10.032;2023-04-03T02:24:28;7.13;;;2.40;;
10872;SDS011;34586;53.616;10.032;2023-04-03T02:26:55;5.07;;;1.87;;
10872;SDS011;34586;53.616;10.032;2023-04-03T02:29:20;5.57;;;2.30;;
10872;SDS011;34586;53.616;10.032;2023-04-03T02:31:46;5.73;;;2.30;;
10872;SDS011;34586;53.616;10.032;2023-04-03T02:34:11;6.73;;;2.17;;
10872;SDS011;34586;53.616;10.032;2023-04-03T02:36:37;7.53;;;1.63;;
10872;SDS011;34586;53.616;10.032;2023-04-03T02:39:04;4.63;;;2.10;;
10872;SDS011;34586;53.616;10.032;2023-04-03T02:41:31;5.50;;;1.93;;
10872;SDS011;34586;53.616;10.032;2023-04-03T02:44:04;5.33;;;1.77;;
10872;SDS011;34586;53.616;10.032;2023-04-03T02:46:31;6.63;;;2.23;;
10872;SDS011;34586;53.616;10.032;2023-04-03T02:48:57;5.53;;;2.00;;
10872;SDS011;34586;53.616;10.032;2023-04-03T02:51:22;4.13;;;1.77;;
10872;SDS011;34586;53.616;10.032;2023-04-03T02:53:48;4.73;;;1.60;;
10872;SDS011;34586;53.616;10.032;2023-04-03T02:56:15;8.13;;;2.00;;
10872;SDS011;34586;53.616;10.032;2023-04-03T02:58:43;5.33;;;2.20;;
10872;SDS011;34586;53.616;10.032;2023-04-03T03:01:09;5.83;;;1.93;;
10872;SDS011;34586;53.616;10.032;2023-04-03T03:03:35;4.50;;;1.80;;
10872;SDS011;34586;53.616;10.032;2023-04-03T03:06:05;4.57;;;1.70;;
10872;SDS011;34586;53.616;10.032;2023-04-03T03:08:31;3.43;;;1.70;;
10872;SDS011;34586;53.616;10.032;2023-04-03T03:10:57;3.83;;;1.90;;
10872;SDS011;34586;53.616;10.032;2023-04-03T03:13:23;6.07;;;2.60;;
10872;SDS011;34586;53.616;10.032;2023-04-03T03:15:49;6.07;;;1.87;;
10872;SDS011;34586;53.616;10.032;2023-04-03T03:18:16;6.50;;;1.80;;
10872;SDS011;34586;53.616;10.032;2023-04-03T03:20:42;6.73;;;2.07;;
10872;SDS011;34586;53.616;10.032;2023-04-03T03:23:07;6.87;;;1.70;;
10872;SDS011;34586;53.616;10.032;2023-04-03T03:25:33;4.80;;;2.00;;
10872;SDS011;34586;53.616;10.032;2023-04-03T03:28:03;3.70;;;1.77;;
10872;SDS011;34586;53.616;10.032;2023-04-03T03:30:29;5.80;;;1.70;;
10872;SDS011;34586;53.616;10.032;2023-04-03T03:32:55;7.33;;;2.43;;
10872;SDS011;34586;53.616;10.032;2023-04-03T03:35:20;5.37;;;2.10;;
10872;SDS011;34586;53.616;10.032;2023-04-03T03:37:48;7.10;;;2.00;;
10872;SDS011;34586;53.616;10.032;2023-04-03T03:40:14;14.50;;;10.33;;
10872;SDS011;34586;53.616;10.032;2023-04-03T03:42:39;13.50;;;6.13;;
10872;SDS011;34586;53.616;10.032;2023-04-03T03:45:05;7.13;;;2.60;;
10872;SDS011;34586;53.616;10.032;2023-04-03T03:47:34;4.17;;;1.83;;
10872;SDS011;34586;53.616;10.032;2023-04-03T03:50:01;6.33;;;2.37;;
10872;SDS011;34586;53.616;10.032;2023-04-03T03:52:27;6.73;;;2.33;;
10872;SDS011;34586;53.616;10.032;2023-04-03T03:54:52;6.00;;;2.47;;
10872;SDS011;34586;53.616;10.032;2023-04-03T03:57:18;6.43;;;2.57;;
10872;SDS011;34586;53.616;10.032;2023-04-03T03:59:43;7.17;;;2.50;;
10872;SDS011;34586;53.616;10.032;2023-04-03T04:02:09;6.23;;;2.87;;
10872;SDS011;34586;53.616;10.032;2023-04-03T04:04:36;6.77;;;3.03;;
10872;SDS011;34586;53.616;10.032;2023-04-03T04:07:02;10.90;;;3.20;;
10872;SDS011;34586;53.616;10.032;2023-04-03T04:09:28;5.70;;;2.40;;
10872;SDS011;34586;53.616;10.032;2023-04-03T04:11:54;7.07;;;2.60;;
10872;SDS011;34586;53.616;10.032;2023-04-03T04:14:21;6.03;;;2.50;;
10872;SDS011;34586;53.616;10.032;2023-04-03T04:16:47;6.60;;;2.60;;
10872;SDS011;34586;53.616;10.032;2023-04-03T04:19:13;6.83;;;3.23;;
10872;SDS011;34586;53.616;10.032;2023-04-03T04:21:40;6.27;;;2.37;;
10872;SDS011;34586;53.616;10.032;2023-04-03T04:24:06;6.73;;;2.90;;
10872;SDS011;34586;53.616;10.032;2023-04-03T04:26:34;5.63;;;2.77;;
10872;SDS011;34586;53.616;10.032;2023-04-03T04:28:59;9.03;;;2.50;;
10872;SDS011;34586;53.616;10.032;2023-04-03T04:31:25;8.70;;;2.90;;
10872;SDS011;34586;53.616;10.032;2023-04-03T04:33:51;8.23;;;2.17;;
10872;SDS011;34586;53.616;10.032;2023-04-03T04:36:17;5.23;;;2.47;;
10872;SDS011;34586;53.616;10.032;2023-04-03T04:38:44;5.10;;;2.63;;
10872;SDS011;34586;53.616;10.032;2023-04-03T04:41:10;7.77;;;2.93;;
10872;SDS011;34586;53.616;10.032;2023-04-03T04:43:38;7.23;;;3.27;;
10872;SDS011;34586;53.616;10.032;2023-04-03T04:46:05;8.40;;;3.20;;
10872;SDS011;34586;53.616;10.032;2023-04-03T04:48:32;11.63;;;2.80;;
10872;SDS011;34586;53.616;10.032;2023-04-03T04:51:02;7.67;;;3.10;;
10872;SDS011;34586;53.616;10.032;2023-04-03T04:53:28;5.40;;;2.73;;
10872;SDS011;34586;53.616;10.032;2023-04-03T04:55:54;9.87;;;2.53;;
10872;SDS011;34586;53.616;10.032;2023-04-03T04:58:20;7.53;;;2.50;;
10872;SDS011;34586;53.616;10.032;2023-04-03T05:00:46;12.33;;;2.67;;
10872;SDS011;34586;53.616;10.032;2023-04-03T05:03:12;6.47;;;2.80;;
10872;SDS011;34586;53.616;10.032;2023-04-03T05:05:39;6.80;;;2.37;;
10872;SDS011;34586;53.616;10.032;2023-04-03T05:08:05;7.03;;;2.53;;
10872;SDS011;34586;53.616;10.032;2023-04-03T05:10:31;9.20;;;2.47;;
10872;SDS011;34586;53.616;10.032;2023-04-03T05:12:57;4.73;;;2.43;;
10872;SDS011;34586;53.616;10.032;2023-04-03T05:15:22;7.23;;;2.73;;
10872;SDS011;34586;53.616;10.032;2023-04-03T05:17:48;8.10;;;3.37;;
10872;SDS011;34586;53.616;10.032;2023-04-03T05:20:14;7.43;;;2.40;;
10872;SDS011;34586;53.616;10.032;2023-04-03T05:22:40;5.73;;;2.23;;
10872;SDS011;34586;53.616;10.032;2023-04-03T05:25:06;9.67;;;2.60;;
10872;SDS011;34586;53.616;10.032;2023-04-03T05:27:32;5.03;;;2.53;;
10872;SDS011;34586;53.616;10.032;2023-04-03T05:29:58;9.77;;;2.93;;
10872;SDS011;34586;53.616;10.032;2023-04-03T05:32:24;6.70;;;2.60;;
10872;SDS011;34586;53.616;10.032;2023-04-03T05:34:52;7.43;;;2.60;;
10872;SDS011;34586;53.616;10.032;2023-04-03T05:37:18;7.43;;;2.47;;
10872;SDS011;34586;53.616;10.032;2023-04-03T05:39:44;6.13;;;2.63;;
10872;SDS011;34586;53.616;10.032;2023-04-03T05:42:10;7.27;;;2.30;;
10872;SDS011;34586;53.616;10.032;2023-04-03T05:44:36;6.53;;;2.30;;
10872;SDS011;34586;53.616;10.032;2023-04-03T05:47:02;6.13;;;2.83;;
10872;SDS011;34586;53.616;10.032;2023-04-03T05:49:28;6.70;;;2.70;;
10872;SDS011;34586;53.616;10.032;2023-04-03T05:51:54;6.40;;;2.67;;
10872;SDS011;34586;53.616;10.032;2023-04-03T05:54:20;7.80;;;2.60;;
10872;SDS011;34586;53.616;10.032;2023-04-03T05:56:50;11.10;;;3.13;;
10872;SDS011;34586;53.616;10.032;2023-04-03T05:59:17;7.13;;;2.10;;
10872;SDS011;34586;53.616;10.032;2023-04-03T06:01:43;7.10;;;2.17;;
10872;SDS011;34586;53.616;10.032;2023-04-03T06:04:09;6.13;;;2.40;;
10872;SDS011;34586;53.616;10.032;2023-04-03T06:09:23;6.40;;;2.17;;
10872;SDS011;34586;53.616;10.032;2023-04-03T06:11:50;6.90;;;2.50;;
10872;SDS011;34586;53.616;10.032;2023-04-03T06:14:16;6.43;;;2.27;;
10872;SDS011;34586;53.616;10.032;2023-04-03T06:16:42;5.07;;;2.50;;
10872;SDS011;34586;53.616;10.032;2023-04-03T06:19:09;9.17;;;2.37;;
10872;SDS011;34586;53.616;10.032;2023-04-03T06:21:36;4.03;;;2.43;;
10872;SDS011;34586;53.616;10.032;2023-04-03T06:24:02;7.07;;;2.87;;
10872;SDS011;34586;53.616;10.032;2023-04-03T06:26:31;5.70;;;3.33;;
10872;SDS011;34586;53.616;10.032;2023-04-03T06:28:58;8.50;;;4.97;;
10872;SDS011;34586;53.616;10.032;2023-04-03T06:31:24;10.37;;;4.23;;
10872;SDS011;34586;53.616;10.032;2023-04-03T06:33:49;10.67;;;7.33;;
10872;SDS011;34586;53.616;10.032;2023-04-03T06:36:15;12.83;;;6.03;;
10872;SDS011;34586;53.616;10.032;2023-04-03T06:38:47;9.17;;;4.27;;
10872;SDS011;34586;53.616;10.032;2023-04-03T06:41:14;9.97;;;3.77;;
10872;SDS011;34586;53.616;10.032;2023-04-03T06:43:41;7.13;;;3.40;;
10872;SDS011;34586;53.616;10.032;2023-04-03T06:46:12;9.53;;;3.80;;
10872;SDS011;34586;53.616;10.032;2023-04-03T06:48:42;7.73;;;3.80;;
10872;SDS011;34586;53.616;10.032;2023-04-03T06:51:13;7.03;;;3.37;;
10872;SDS011;34586;53.616;10.032;2023-04-03T06:53:47;7.37;;;3.10;;
10872;SDS011;34586;53.616;10.032;2023-04-03T06:56:14;4.63;;;2.33;;
10872;SDS011;34586;53.616;10.032;2023-04-03T06:58:40;5.33;;;2.70;;
10872;SDS011;34586;53.616;10.032;2023-04-03T07:01:07;3.27;;;2.00;;
10872;SDS011;34586;53.616;10.032;2023-04-03T07:03:35;7.37;;;2.47;;
10872;SDS011;34586;53.616;10.032;2023-04-03T07:06:01;3.77;;;1.53;;
10872;SDS011;34586;53.616;10.032;2023-04-03T07:08:27;5.50;;;1.50;;
10872;SDS011;34586;53.616;10.032;2023-04-03T07:10:53;2.47;;;1.13;;
10872;SDS011;34586;53.616;10.032;2023-04-03T07:13:19;4.43;;;1.50;;
10872;SDS011;34586;53.616;10.032;2023-04-03T07:15:45;5.27;;;1.57;;
10872;SDS011;34586;53.616;10.032;2023-04-03T07:18:10;6.27;;;2.00;;
10872;SDS011;34586;53.616;10.032;2023-04-03T07:20:36;4.17;;;1.47;;
10872;SDS011;34586;53.616;10.032;2023-04-03T07:23:03;3.57;;;0.93;;
10872;SDS011;34586;53.616;10.032;2023-04-03T07:25:28;4.67;;;1.13;;
10872;SDS011;34586;53.616;10.032;2023-04-03T07:27:54;5.30;;;1.43;;
10872;SDS011;34586;53.616;10.032;2023-04-03T07:30:21;4.33;;;1.37;;
10872;SDS011;34586;53.616;10.032;2023-04-03T07:32:47;4.00;;;1.30;;
10872;SDS011;34586;53.616;10.032;2023-04-03T07:35:13;2.47;;;1.07;;
10872;SDS011;34586;53.616;10.032;2023-04-03T07:37:38;3.00;;;1.00;;
10872;SDS011;34586;53.616;10.032;2023-04-03T07:40:05;2.47;;;1.13;;
10872;SDS011;34586;53.616;10.032;2023-04-03T07:42:31;2.40;;;0.90;;
10872;SDS011;34586;53.616;10.032;2023-04-03T07:44:57;8.33;;;1.20;;
10872;SDS011;34586;53.616;10.032;2023-04-03T07:47:22;3.77;;;0.87;;
10872;SDS011;34586;53.616;10.032;2023-04-03T07:49:48;1.63;;;0.93;;
10872;SDS011;34586;53.616;10.032;2023-04-03T07:52:14;5.13;;;1.40;;
10872;SDS011;34586;53.616;10.032;2023-04-03T07:54:40;3.63;;;1.10;;
10872;SDS011;34586;53.616;10.032;2023-04-03T07:57:06;3.30;;;1.23;;
10872;SDS011;34586;53.616;10.032;2023-04-03T07:59:32;5.17;;;1.47;;
10872;SDS011;34586;53.616;10.032;2023-04-03T08:01:57;5.17;;;1.10;;
10872;SDS011;34586;53.616;10.032;2023-04-03T08:04:23;4.00;;;1.20;;
10872;SDS011;34586;53.616;10.032;2023-04-03T08:06:49;3.23;;;1.33;;
10872;SDS011;34586;53.616;10.032;2023-04-03T08:09:16;3.90;;;1.00;;
10872;SDS011;34586;53.616;10.032;2023-04-03T08:11:41;3.73;;;1.13;;
10872;SDS011;34586;53.616;10.032;2023-04-03T08:14:08;3.37;;;0.90;;
10872;SDS011;34586;53.616;10.032;2023-04-03T08:16:36;3.13;;;1.17;;
10872;SDS011;34586;53.616;10.032;2023-04-03T08:19:01;3.20;;;1.10;;
10872;SDS011;34586;53.616;10.032;2023-04-03T08:21:27;1.90;;;0.90;;
10872;SDS011;34586;53.616;10.032;2023-04-03T08:23:52;1.47;;;0.90;;
10872;SDS011;34586;53.616;10.032;2023-04-03T08:26:20;1.87;;;1.00;;
10872;SDS011;34586;53.616;10.032;2023-04-03T08:28:46;2.20;;;1.00;;
10872;SDS011;34586;53.616;10.032;2023-04-03T08:31:14;2.43;;;1.10;;
10872;SDS011;34586;53.616;10.032;2023-04-03T08:33:43;2.77;;;1.23;;
10872;SDS011;34586;53.616;10.032;2023-04-03T08:36:16;4.53;;;1.20;;
10872;SDS011;34586;53.616;10.032;2023-04-03T08:38:49;2.23;;;1.03;;
10872;SDS011;34586;53.616;10.032;2023-04-03T08:46:24;4.67;;;1.10;;
10872;SDS011;34586;53.616;10.032;2023-04-03T08:48:58;3.93;;;0.93;;
10872;SDS011;34586;53.616;10.032;2023-04-03T08:51:24;3.60;;;1.10;;
10872;SDS011;34586;53.616;10.032;2023-04-03T08:53:56;3.80;;;0.97;;
10872;SDS011;34586;53.616;10.032;2023-04-03T08:56:28;3.10;;;0.80;;
10872;SDS011;34586;53.616;10.032;2023-04-03T08:58:56;2.07;;;0.97;;
10872;SDS011;34586;53.616;10.032;2023-04-03T09:01:30;4.33;;;0.83;;
10872;SDS011;34586;53.616;10.032;2023-04-03T09:04:02;1.87;;;1.00;;
10872;SDS011;34586;53.616;10.032;2023-04-03T09:06:35;2.83;;;0.80;;
10872;SDS011;34586;53.616;10.032;2023-04-03T09:09:07;2.77;;;0.90;;
10872;SDS011;34586;53.616;10.032;2023-04-03T09:14:07;1.80;;;0.90;;
10872;SDS011;34586;53.616;10.032;2023-04-03T09:21:56;1.90;;;0.70;;
10872;SDS011;34586;53.616;10.032;2023-04-03T09:24:24;2.97;;;0.83;;
10872;SDS011;34586;53.616;10.032;2023-04-03T09:26:53;3.90;;;0.83;;
10872;SDS011;34586;53.616;10.032;2023-04-03T09:29:25;1.03;;;0.53;;
10872;SDS011;34586;53.616;10.032;2023-04-03T09:32:01;2.10;;;0.73;;
10872;SDS011;34586;53.616;10.032;2023-04-03T09:34:36;4.17;;;0.97;;
10872;SDS011;34586;53.616;10.032;2023-04-03T09:37:04;1.73;;;0.60;;
10872;SDS011;34586;53.616;10.032;2023-04-03T09:39:48;2.13;;;0.60;;
10872;SDS011;34586;53.616;10.032;2023-04-03T09:42:20;1.70;;;0.77;;
10872;SDS011;34586;53.616;10.032;2023-04-03T09:45:00;2.70;;;0.70;;
10872;SDS011;34586;53.616;10.032;2023-04-03T09:47:31;1.10;;;0.70;;
10872;SDS011;34586;53.616;10.032;2023-04-03T09:52:40;0.90;;;0.40;;
10872;SDS011;34586;53.616;10.032;2023-04-03T09:55:10;1.17;;;0.70;;
10872;SDS011;34586;53.616;10.032;2023-04-03T09:57:51;1.80;;;0.50;;
10872;SDS011;34586;53.616;10.032;2023-04-03T10:00:26;0.60;;;0.30;;
10872;SDS011;34586;53.616;10.032;2023-04-03T10:02:57;0.87;;;0.40;;
10872;SDS011;34586;53.616;10.032;2023-04-03T10:05:28;1.67;;;0.50;;
10872;SDS011;34586;53.616;10.032;2023-04-03T10:08:11;2.37;;;0.73;;
10872;SDS011;34586;53.616;10.032;2023-04-03T10:10:44;0.83;;;0.57;;
10872;SDS011;34586;53.616;10.032;2023-04-03T10:13:15;1.80;;;0.60;;
10872;SDS011;34586;53.616;10.032;2023-04-03T10:15:44;0.80;;;0.50;;
10872;SDS011;34586;53.616;10.032;2023-04-03T10:20:53;0.93;;;0.50;;
10872;SDS011;34586;53.616;10.032;2023-04-03T10:23:26;1.80;;;0.80;;
10872;SDS011;34586;53.616;10.032;2023-04-03T10:31:44;1.57;;;0.80;;
10872;SDS011;34586;53.616;10.032;2023-04-03T10:37:01;1.60;;;0.70;;
10872;SDS011;34586;53.616;10.032;2023-04-03T10:40:02;1.23;;;0.77;;
10872;SDS011;34586;53.616;10.032;2023-04-03T10:42:33;1.27;;;0.70;;
10872;SDS011;34586;53.616;10.032;2023-04-03T10:45:26;2.23;;;0.60;;
10872;SDS011;34586;53.616;10.032;2023-04-03T10:48:11;1.33;;;0.53;;
10872;SDS011;34586;53.616;10.032;2023-04-03T10:53:35;1.33;;;0.60;;
10872;SDS011;34586;53.616;10.032;2023-04-03T10:58:48;1.67;;;0.73;;
10872;SDS011;34586;53.616;10.032;2023-04-03T11:01:23;3.10;;;1.17;;
10872;SDS011;34586;53.616;10.032;2023-04-03T11:03:56;2.20;;;1.00;;
10872;SDS011;34586;53.616;10.032;2023-04-03T11:06:26;1.90;;;0.80;;
10872;SDS011;34586;53.616;10.032;2023-04-03T11:09:16;1.80;;;0.80;;
10872;SDS011;34586;53.616;10.032;2023-04-03T11:11:44;1.83;;;0.73;;
10872;SDS011;34586;53.616;10.032;2023-04-03T11:14:26;4.07;;;1.20;;
10872;SDS011;34586;53.616;10.032;2023-04-03T11:17:11;1.27;;;0.80;;
10872;SDS011;34586;53.616;10.032;2023-04-03T11:19:51;2.73;;;0.80;;
10872;SDS011;34586;53.616;10.032;2023-04-03T11:22:38;1.53;;;0.67;;
10872;SDS011;34586;53.616;10.032;2023-04-03T11:27:38;1.73;;;1.10;;
10872;SDS011;34586;53.616;10.032;2023-04-03T11:30:11;1.87;;;1.10;;
10872;SDS011;34586;53.616;10.032;2023-04-03T11:35:14;2.93;;;1.10;;
10872;SDS011;34586;53.616;10.032;2023-04-03T11:37:44;1.90;;;0.80;;
10872;SDS011;34586;53.616;10.032;2023-04-03T11:47:55;1.37;;;0.57;;
10872;SDS011;34586;53.616;10.032;2023-04-03T11:50:30;1.33;;;0.50;;
10872;SDS011;34586;53.616;10.032;2023-04-03T11:53:25;2.73;;;0.57;;
10872;SDS011;34586;53.616;10.032;2023-04-03T11:56:02;2.33;;;0.60;;
10872;SDS011;34586;53.616;10.032;2023-04-03T12:01:50;2.30;;;0.60;;
10872;SDS011;34586;53.616;10.032;2023-04-03T12:08:52;2.63;;;0.80;;
10872;SDS011;34586;53.616;10.032;2023-04-03T12:13:35;4.13;;;1.23;;
10872;SDS011;34586;53.616;10.032;2023-04-03T12:16:03;2.30;;;1.50;;
10872;SDS011;34586;53.616;10.032;2023-04-03T12:18:37;2.47;;;1.70;;
10872;SDS011;34586;53.616;10.032;2023-04-03T12:21:10;3.83;;;1.73;;
10872;SDS011;34586;53.616;10.032;2023-04-03T12:23:56;2.03;;;1.20;;
10872;SDS011;34586;53.616;10.032;2023-04-03T12:45:58;2.53;;;0.70;;
10872;SDS011;34586;53.616;10.032;2023-04-03T12:48:31;0.93;;;0.60;;
10872;SDS011;34586;53.616;10.032;2023-04-03T12:51:02;1.93;;;0.60;;
10872;SDS011;34586;53.616;10.032;2023-04-03T12:53:33;2.00;;;0.77;;
10872;SDS011;34586;53.616;10.032;2023-04-03T12:58:48;3.30;;;0.67;;
10872;SDS011;34586;53.616;10.032;2023-04-03T13:01:16;1.00;;;0.60;;
10872;SDS011;34586;53.616;10.032;2023-04-03T13:03:50;1.37;;;0.47;;
10872;SDS011;34586;53.616;10.032;2023-04-03T13:06:23;0.80;;;0.40;;
10872;SDS011;34586;53.616;10.032;2023-04-03T13:09:05;1.50;;;0.40;;
10872;SDS011;34586;53.616;10.032;2023-04-03T13:11:42;1.80;;;0.60;;
10872;SDS011;34586;53.616;10.032;2023-04-03T13:14:49;3.67;;;0.83;;
10872;SDS011;34586;53.616;10.032;2023-04-03T13:17:15;0.87;;;0.50;;
10872;SDS011;34586;53.616;10.032;2023-04-03T13:19:41;2.90;;;0.80;;
10872;SDS011;34586;53.616;10.032;2023-04-03T13:22:11;1.77;;;0.70;;
10872;SDS011;34586;53.616;10.032;2023-04-03T13:25:05;2.47;;;0.70;;
10872;SDS011;34586;53.616;10.032;2023-04-03T13:27:35;1.10;;;0.70;;
10872;SDS011;34586;53.616;10.032;2023-04-03T13:30:04;1.53;;;0.60;;
10872;SDS011;34586;53.616;10.032;2023-04-03T13:32:31;1.00;;;0.60;;
10872;SDS011;34586;53.616;10.032;2023-04-03T13:34:58;0.67;;;0.43;;
10872;SDS011;34586;53.616;10.032;2023-04-03T13:37:25;1.30;;;0.60;;
10872;SDS011;34586;53.616;10.032;2023-04-03T13:42:40;3.20;;;0.80;;
10872;SDS011;34586;53.616;10.032;2023-04-03T13:47:39;1.57;;;0.70;;
10872;SDS011;34586;53.616;10.032;2023-04-03T13:50:14;2.50;;;0.90;;
10872;SDS011;34586;53.616;10.032;2023-04-03T13:52:46;2.13;;;0.60;;
10872;SDS011;34586;53.616;10.032;2023-04-03T13:55:30;1.27;;;0.50;;
10872;SDS011;34586;53.616;10.032;2023-04-03T13:58:16;1.20;;;0.77;;
10872;SDS011;34586;53.616;10.032;2023-04-03T14:01:06;1.20;;;0.90;;
10872;SDS011;34586;53.616;10.032;2023-04-03T14:03:42;1.47;;;0.70;;
10872;SDS011;34586;53.616;10.032;2023-04-03T14:06:37;1.37;;;0.63;;
10872;SDS011;34586;53.616;10.032;2023-04-03T14:09:02;1.00;;;0.60;;
10872;SDS011;34586;53.616;10.032;2023-04-03T14:11:30;3.07;;;0.77;;
10872;SDS011;34586;53.616;10.032;2023-04-03T14:14:00;1.53;;;0.60;;
10872;SDS011;34586;53.616;10.032;2023-04-03T14:16:32;2.93;;;1.00;;
10872;SDS011;34586;53.616;10.032;2023-04-03T14:19:02;2.40;;;0.80;;
10872;SDS011;34586;53.616;10.032;2023-04-03T14:21:28;1.37;;;0.77;;
10872;SDS011;34586;53.616;10.032;2023-04-03T14:23:54;2.93;;;0.80;;
10872;SDS011;34586;53.616;10.032;2023-04-03T14:26:22;1.70;;;0.80;;
10872;SDS011;34586;53.616;10.032;2023-04-03T14:28:52;1.07;;;0.50;;
10872;SDS011;34586;53.616;10.032;2023-04-03T14:31:19;2.00;;;0.93;;
10872;SDS011;34586;53.616;10.032;2023-04-03T14:33:46;3.93;;;0.77;;
10872;SDS011;34586;53.616;10.032;2023-04-03T14:36:15;2.43;;;0.70;;
10872;SDS011;34586;53.616;10.032;2023-04-03T14:38:44;1.60;;;0.80;;
10872;SDS011;34586;53.616;10.032;2023-04-03T14:41:13;1.27;;;0.70;;
10872;SDS011;34586;53.616;10.032;2023-04-03T14:43:41;1.73;;;0.70;;
10872;SDS011;34586;53.616;10.032;2023-04-03T14:46:52;2.87;;;0.97;;
10872;SDS011;34586;53.616;10.032;2023-04-03T14:49:05;2.80;;;0.87;;
10872;SDS011;34586;53.616;10.032;2023-04-03T14:51:43;2.17;;;0.90;;
10872;SDS011;34586;53.616;10.032;2023-04-03T14:54:14;1.40;;;0.80;;
10872;SDS011;34586;53.616;10.032;2023-04-03T14:56:41;1.37;;;0.70;;
10872;SDS011;34586;53.616;10.032;2023-04-03T14:59:09;1.33;;;0.90;;
10872;SDS011;34586;53.616;10.032;2023-04-03T15:01:37;1.97;;;0.80;;
10872;SDS011;34586;53.616;10.032;2023-04-03T15:04:19;1.57;;;0.70;;
10872;SDS011;34586;53.616;10.032;2023-04-03T15:06:47;1.57;;;0.50;;
10872;SDS011;34586;53.616;10.032;2023-04-03T15:09:24;2.20;;;0.77;;
10872;SDS011;34586;53.616;10.032;2023-04-03T15:11:53;2.63;;;0.70;;
10872;SDS011;34586;53.616;10.032;2023-04-03T15:14:19;1.80;;;0.83;;
10872;SDS011;34586;53.616;10.032;2023-04-03T15:16:45;3.13;;;0.73;;
10872;SDS011;34586;53.616;10.032;2023-04-03T15:19:11;1.40;;;0.77;;
10872;SDS011;34586;53.616;10.032;2023-04-03T15:21:38;2.33;;;0.90;;
10872;SDS011;34586;53.616;10.032;2023-04-03T15:24:04;3.07;;;0.90;;
10872;SDS011;34586;53.616;10.032;2023-04-03T15:26:30;1.50;;;0.80;;
10872;SDS011;34586;53.616;10.032;2023-04-03T15:28:57;2.57;;;0.80;;
10872;SDS011;34586;53.616;10.032;2023-04-03T15:31:24;1.40;;;0.80;;
10872;SDS011;34586;53.616;10.032;2023-04-03T15:33:50;3.33;;;0.77;;
10872;SDS011;34586;53.616;10.032;2023-04-03T15:36:15;2.00;;;0.70;;
10872;SDS011;34586;53.616;10.032;2023-04-03T15:38:41;3.30;;;0.90;;
10872;SDS011;34586;53.616;10.032;2023-04-03T15:41:07;0.97;;;0.80;;
10872;SDS011;34586;53.616;10.032;2023-04-03T15:43:33;1.63;;;0.90;;
10872;SDS011;34586;53.616;10.032;2023-04-03T15:46:00;1.70;;;1.10;;
10872;SDS011;34586;53.616;10.032;2023-04-03T15:48:26;3.30;;;0.90;;
10872;SDS011;34586;53.616;10.032;2023-04-03T15:50:53;2.40;;;0.87;;
10872;SDS011;34586;53.616;10.032;2023-04-03T15:53:18;0.90;;;0.80;;
10872;SDS011;34586;53.616;10.032;2023-04-03T15:55:44;3.47;;;1.00;;
10872;SDS011;34586;53.616;10.032;2023-04-03T15:58:10;1.70;;;0.90;;
10872;SDS011;34586;53.616;10.032;2023-04-03T16:00:37;1.80;;;0.90;;
10872;SDS011;34586;53.616;10.032;2023-04-03T16:03:08;2.33;;;0.90;;
10872;SDS011;34586;53.616;10.032;2023-04-03T16:05:37;5.00;;;1.03;;
10872;SDS011;34586;53.616;10.032;2023-04-03T16:08:04;1.93;;;0.83;;
10872;SDS011;34586;53.616;10.032;2023-04-03T16:10:33;1.87;;;0.70;;
10872;SDS011;34586;53.616;10.032;2023-04-03T16:13:01;2.23;;;0.90;;
10872;SDS011;34586;53.616;10.032;2023-04-03T16:15:29;2.60;;;0.70;;